Other Surface Observations
Issued by NWS Great Falls, MT

Home | Current Version | Previous Version | Text Only | Print | Product List | Glossary On
Versions: 1 2 3 4 5 6 7 8 9 10 11 12 13 14 15 16 17 18 19 20 21 22 23 24 25 26 27 28 29 30 31 32 33 34 35 36 37 38 39 40 41 42 43 44 45 46 47 48 49 50
000
SXUS55 KTFX 292106
OSOTFX
AREA AWOS OBSERVATIONS
NATIONAL WEATHER SERVICE GREAT FALLS MT
0305 PM MDT TUE JUL 29 2014

METAR KPWD 292100Z AUTO 35005KT 10SM 26/13 A3019 RMK PLENTYWOOD
METAR KPO1 292100Z AUTO 27011G15KT 29/09 A3017 RMK POPLAR
METAR K1S3 292100Z AUTO 08005KT 10SM 31/04 A3017 RMK FORSYTH
METAR K6S0 292100Z AUTO 10SM 29/08 A3023 RMK BIG TIMBER
METAR K79S 292100Z AUTO 04010G16KT 10SM 34/06 A3013 RMK FORT BENTON
METAR KEKS 292100Z AUTO 32006G20KT 10SM 29/05 A3028 RMK ENNIS
METAR K38S 292100Z AUTO 03004KT 10SM 31/03 A3023 RMK DEER LODGE
METAR K3U3 292100Z AUTO 36006KT 29/05 A3022 RMK ANACONDA
METAR K6S5 292100Z AUTO 35008KT 3SM 32/07 A3012 RMK HAMILTON
METAR KS59 292100Z AUTO 10005KT 10SM 35/01 A3008 RMK LIBBY
METAR K88M 292100Z AUTO 33005KT 10SM 34/02 A3009 RMK EUREKA



USA.gov is the U.S. government's official web portal to all federal, state and local government web resources and services.